Latest Weather Observations for Cooma Airport

IDN60801

Issued at 5:32 am EST Wednesday 1 July 2015 (issued every 30 minutes, with the page automatically refreshed every 10 minutes)

About weather observations | Map of weather stations | Latest weather observations for NSW | Other Formats
Station Details ID: 070217 Name: COOMA AIRPORT AWS Lat: -36.29 Lon: 148.97 Height: 930.0 m
Data from the previous 72 hours. | See also: Recent months for locations in New South Wales
Date/Time
EST
Temp
°C
App
Temp
°C
Dew
Point
Rel
Hum
%
Delta-T
°C
Wind Press
QNH
hPa
Press
MSL
hPa
Rain
since 9 am
mm
Dir
 
Spd
km/h
Gust
km/h
Spd
kts
Gust
kts
01/05:30am -5.5 -8.2 -5.6 99 -0.2 CALM 0 0 0 0 1025.2 1026.6 0.2
01/05:00am -6.1 -8.9 -6.6 96 -0.1 CALM 0 0 0 0 1025.2 1026.6 0.2
01/04:34am -5.6 -8.3 -5.9 98 -0.1 CALM 0 0 0 0 1025.0 1026.4 0.2
01/04:30am -5.5 -8.2 -5.6 99 -0.2 CALM 0 0 0 0 1025.0 1026.4 0.2
01/04:00am -5.1 -7.7 -5.2 99 -0.2 CALM 0 0 0 0 1024.9 1026.3 0.2
01/03:50am -5.8 -8.5 -6.3 96 -0.1 CALM 0 0 0 0 1024.9 1026.3 0.2
01/03:41am -5.1 -7.7 -5.2 99 -0.2 CALM 0 0 0 0 1024.9 1026.3 0.2
01/03:32am -3.9 -6.4 -4.0 99 -0.1 CALM 0 0 0 0 1024.9 1026.3 0.2
01/03:30am -4.4 -7.0 -4.5 99 -0.2 CALM 0 0 0 0 1024.9 1026.3 0.2
01/03:28am -4.5 -7.1 -4.8 98 -0.1 CALM 0 0 0 0 1024.9 1026.3 0.2
01/03:00am -4.7 -7.3 -5.4 95 0.0 CALM 0 0 0 0 1025.1 1026.5 0.2
01/02:42am -4.5 -7.2 -5.5 93 0.1 CALM 0 0 0 0 1025.3 1026.7 0.2
01/02:30am -3.7 -6.2 -4.0 98 -0.1 CALM 0 0 0 0 1025.3 1026.7 0.2
01/02:23am -2.3 -4.6 -2.4 99 -0.1 CALM 0 0 0 0 1025.3 1026.7 0.2
01/02:22am -2.5 -4.8 -2.6 99 -0.1 CALM 0 0 0 0 1025.3 1026.7 0.2
01/02:00am -2.9 -5.3 -3.0 99 -0.1 CALM 0 0 0 0 1025.5 1027.0 0.2
01/01:55am -3.4 -5.9 -3.7 98 0.0 CALM 0 0 0 0 1025.5 1027.0 0.2
01/01:30am -3.3 -5.8 -3.8 96 0.0 CALM 0 0 0 0 1025.5 1027.0 0.2
01/01:22am -3.4 -5.9 -4.2 94 0.1 CALM 0 0 0 0 1025.5 1027.0 0.2
01/01:09am -2.0 -4.3 -2.1 99 -0.1 CALM 0 6 0 3 1025.6 1027.1 0.2
01/01:00am -2.1 -4.4 -2.2 99 -0.1 CALM 0 0 0 0 1025.6 1027.1 0.2
01/12:43am -2.2 -4.5 -2.6 97 0.0 CALM 0 0 0 0 1025.7 1027.2 0.2
01/12:30am -1.5 -4.8 -1.6 99 0.0 SW 6 7 3 4 1026.0 1027.4 0.2
01/12:07am -0.4 -3.6 -0.5 99 0.0 SSW 6 6 3 3 1026.0 1027.4 0.2
01/12:00am -0.1 -3.3 -0.2 99 0.0 SSW 6 7 3 4 1026.0 1027.4 0.2
 
Date/Time
EST
Temp
°C
App
Temp
°C
Dew
Point
Rel
Hum
%
Delta-T
°C
Wind Press
QNH
hPa
Press
MSL
hPa
Rain
since 9 am
mm
Dir
 
Spd
km/h
Gust
km/h
Spd
kts
Gust
kts
30/11:30pm 0.5 -3.9 0.2 98 0.1 SW 13 15 7 8 1026.1 1027.5 0.2
30/11:00pm 1.9 -2.7 1.8 99 0.0 SW 15 17 8 9 1026.1 1027.5 0.2
30/10:30pm 2.0 -2.2 1.9 99 0.0 SW 13 15 7 8 1026.2 1027.6 0.2
30/10:00pm 1.4 -2.9 1.3 99 0.0 SW 13 15 7 8 1026.2 1027.6 0.2
30/09:30pm 1.5 -3.1 1.4 99 0.0 SW 15 17 8 9 1026.2 1027.6 0.2
30/09:24pm 1.6 -3.0 1.5 99 0.0 SW 15 17 8 9 1026.2 1027.6 0.2
30/09:00pm 1.3 -3.0 1.2 99 0.0 SW 13 17 7 9 1026.3 1027.7 0.2
30/08:30pm 1.1 -3.6 1.0 99 0.0 SW 15 17 8 9 1026.2 1027.6 0.2
30/08:00pm 0.6 -4.2 0.5 99 0.0 SW 15 17 8 9 1026.0 1027.4 0.2
30/07:53pm 0.0 -4.5 -0.1 99 0.0 SW 13 15 7 8 1026.0 1027.4 0.2
30/07:30pm 0.7 -4.0 0.6 99 0.0 SSW 15 17 8 9 1026.0 1027.4 0.2
30/07:00pm 0.1 -4.6 -1.6 88 0.6 S 13 19 7 10 1025.7 1027.2 0.2
30/06:30pm 1.4 -3.7 -1.7 80 1.2 SW 15 17 8 9 1025.2 1026.6 0.2
30/06:00pm 1.4 -3.7 -2.0 78 1.2 SSW 15 17 8 9 1024.6 1026.1 0.2
30/05:30pm 1.0 -3.8 -2.6 77 1.4 S 13 15 7 8 1024.3 1025.7 0.2
30/05:00pm 3.8 0.4 -2.4 64 2.3 SSE 6 13 3 7 1024.2 1025.6 0.2
30/04:30pm 7.4 4.5 -0.8 56 3.3 E 4 7 2 4 1023.9 1025.3 0.2
30/04:00pm 8.4 4.7 -0.1 55 3.5 NE 9 11 5 6 1023.8 1025.2 0.2
30/03:30pm 8.6 4.5 0.1 55 3.6 NE 11 15 6 8 1023.6 1024.9 0.2
30/03:00pm 8.4 4.8 0.4 57 3.4 ENE 9 13 5 7 1023.6 1024.9 0.2
30/02:30pm 8.1 3.9 1.9 65 2.7 ENE 13 15 7 8 1023.6 1024.9 0.2
30/02:00pm 7.5 3.3 1.8 67 2.5 ENE 13 17 7 9 1023.7 1025.1 0.2
30/01:30pm 7.0 2.9 2.5 73 2.0 ENE 13 17 7 9 1023.9 1025.3 0.2
30/01:00pm 5.3 0.6 1.2 75 1.7 ENE 15 20 8 11 1024.2 1025.6 0.2
30/12:30pm 4.8 0.0 2.7 86 0.9 NE 17 20 9 11 1024.6 1026.1 0.2
30/12:20pm 4.6 -0.1 3.1 90 0.7 NE 17 20 9 11 1024.9 1026.3 0.2
30/12:00pm 4.2 -0.3 4.1 99 0.0 NE 17 20 9 11 1025.3 1026.7 0.2
30/11:57am 3.6 -0.7 3.5 99 0.0 NE 15 19 8 10 1025.4 1026.8 0.2
30/11:30am 2.5 -2.3 2.4 99 0.0 NE 17 20 9 11 1026.0 1027.4 0.2
30/11:00am 1.7 -3.6 1.6 99 0.0 NE 19 22 10 12 1026.4 1027.9 0.2
30/10:30am 1.1 -4.0 1.0 99 0.0 NE 17 19 9 10 1026.7 1028.2 0.2
30/10:00am 0.0 -2.4 -0.1 99 0.0 NE 2 19 1 10 1027.1 1028.5 0.2
30/09:30am -0.8 -2.9 -0.9 99 0.0 CALM 0 0 0 0 1027.2 1028.6 0.2
30/09:00am -1.4 -3.6 -1.5 99 0.0 CALM 0 0 0 0 1027.1 1028.5 0.0
30/08:30am -1.7 -3.9 -1.8 99 0.0 CALM 0 0 0 0 1027.2 1028.6 0.0
30/08:00am -1.7 -3.9 -1.8 99 0.0 CALM 0 0 0 0 1027.4 1028.9 0.0
30/07:30am -2.2 -4.5 -2.3 99 -0.1 CALM 0 0 0 0 1027.4 1028.9 0.0
30/07:00am -2.8 -5.2 -2.9 99 -0.1 CALM 0 0 0 0 1027.3 1028.8 0.0
30/06:30am -4.9 -7.5 -5.0 99 -0.2 CALM 0 0 0 0 1027.3 1028.8 0.0
30/06:28am -4.8 -7.4 -4.9 99 -0.2 CALM 0 0 0 0 1027.3 1028.8 0.0
30/06:26am -4.6 -7.2 -4.7 99 -0.2 CALM 0 0 0 0 1027.2 1028.6 0.0
30/06:00am -4.1 -6.6 -4.2 99 -0.1 CALM 0 0 0 0 1026.9 1028.4 0.0
30/05:30am -4.3 -6.8 -4.4 99 -0.1 CALM 0 0 0 0 1026.8 1028.3 0.0
30/05:00am -4.5 -7.1 -4.6 99 -0.2 CALM 0 0 0 0 1027.1 1028.5 0.0
30/04:30am -5.2 -7.8 -5.3 99 -0.2 CALM 0 0 0 0 1026.9 1028.4 0.0
30/04:00am -3.8 -6.3 -3.9 99 -0.1 CALM 0 0 0 0 1027.1 1028.5 0.0
30/03:36am -4.3 -6.8 -4.4 99 -0.1 CALM 0 0 0 0 1027.2 1028.6 0.0
30/03:30am -4.0 -6.5 -4.1 99 -0.1 CALM 0 0 0 0 1027.2 1028.6 0.0
30/03:27am -3.9 -6.4 -4.0 99 -0.1 CALM 0 0 0 0 1027.3 1028.8 0.0
30/03:00am -4.2 -6.7 -4.3 99 -0.1 CALM 0 0 0 0 1027.6 1029.1 0.0
30/02:37am -3.6 -6.1 -3.7 99 -0.1 CALM 0 0 0 0 1027.5 1029.0 0.0
30/02:35am -3.5 -6.0 -3.6 99 -0.1 CALM 0 0 0 0 1027.5 1029.0 0.0
30/02:30am -3.4 -5.8 -3.5 99 -0.1 CALM 0 0 0 0 1027.5 1029.0 0.0
30/02:00am -3.2 -5.6 -3.3 99 -0.1 CALM 0 0 0 0 1027.6 1029.1 0.0
30/01:30am -2.4 -4.7 -2.5 99 -0.1 CALM 0 0 0 0 1027.9 1029.4 0.0
30/01:00am -0.9 -3.0 -1.0 99 0.0 CALM 0 0 0 0 1027.9 1029.4 0.0
30/12:30am -0.5 -4.7 -0.6 99 0.0 NNE 11 13 6 7 1028.0 1029.5 0.0
30/12:00am 0.7 -3.3 0.6 99 0.0 NE 11 13 6 7 1028.5 1030.0 0.0
 
Date/Time
EST
Temp
°C
App
Temp
°C
Dew
Point
Rel
Hum
%
Delta-T
°C
Wind Press
QNH
hPa
Press
MSL
hPa
Rain
since 9 am
mm
Dir
 
Spd
km/h
Gust
km/h
Spd
kts
Gust
kts
29/11:30pm 1.3 -3.0 1.2 99 0.0 NE 13 15 7 8 1028.7 1030.2 0.0
29/11:00pm 1.4 -2.9 1.3 99 0.0 N 13 15 7 8 1029.0 1030.5 0.0
29/10:30pm 1.5 -2.0 1.4 99 0.0 NNE 9 11 5 6 1029.2 1030.8 0.0
29/10:00pm 0.6 -2.6 0.5 99 0.0 NNE 7 11 4 6 1029.4 1030.9 0.0
29/09:30pm -0.6 -4.4 -0.7 99 0.0 NNE 9 11 5 6 1029.8 1031.3 0.0
29/09:22pm -1.9 -5.9 -2.0 99 -0.1 NNE 9 11 5 6 1029.8 1031.3 0.0
29/09:21pm -2.0 -6.0 -2.1 99 -0.1 NNE 9 11 5 6 1029.8 1031.3 0.0
29/09:00pm -3.2 -7.4 -4.0 94 0.1 NNE 9 9 5 5 1029.9 1031.4 0.0
29/08:30pm -2.6 -6.3 -2.7 99 -0.1 NNE 7 7 4 4 1030.1 1031.7 0.0
29/08:00pm -3.1 -7.3 -3.9 94 0.1 NNE 9 9 5 5 1030.1 1031.7 0.0
29/07:30pm -2.2 -5.9 -2.7 96 0.1 NNW 7 9 4 5 1030.0 1031.5 0.0
29/07:00pm -2.1 -5.8 -3.2 92 0.3 NNE 7 9 4 5 1030.0 1031.5 0.0
29/06:30pm -1.7 -4.1 -3.4 88 0.5 CALM 0 0 0 0 1029.9 1031.4 0.0
29/06:00pm 0.1 -2.2 -2.3 84 0.9 CALM 0 0 0 0 1029.6 1031.1 0.0
29/05:30pm 2.5 -0.9 -0.8 79 1.3 N 7 9 4 5 1029.5 1031.0 0.0
29/05:00pm 3.7 -0.1 -0.7 73 1.7 NNE 9 11 5 6 1029.4 1030.9 0.0
29/04:30pm 6.9 3.4 1.0 66 2.5 NNE 9 11 5 6 1029.2 1030.8 0.0
29/04:00pm 8.9 5.2 2.3 63 2.9 NNE 11 13 6 7 1029.1 1030.7 0.0
29/03:30pm 9.5 5.5 2.6 62 3.1 NNE 13 15 7 8 1029.2 1030.8 0.0
29/03:00pm 9.9 6.4 3.6 65 2.9 NNE 11 15 6 8 1029.4 1030.9 0.0
29/02:30pm 9.7 6.1 3.2 64 3.0 NE 11 15 6 8 1029.2 1030.8 0.0
29/02:00pm 8.6 5.5 3.6 71 2.3 NE 9 13 5 7 1029.4 1030.9 0.0
29/01:30pm 7.0 3.3 2.5 73 2.0 NE 11 17 6 9 1029.7 1031.2 0.0
29/01:00pm 6.7 3.0 4.4 85 1.0 NE 13 17 7 9 1030.1 1031.7 0.0
29/12:33pm 5.3 1.2 4.4 94 0.4 NE 15 19 8 10 1030.6 1032.1 0.0
29/12:30pm 5.2 1.2 4.8 97 0.2 NE 15 19 8 10 1030.7 1032.2 0.0
29/12:12pm 4.1 0.3 4.0 99 0.0 NE 13 17 7 9 1031.0 1032.6 0.0
29/12:00pm 3.4 -0.5 3.3 99 0.0 NNE 13 17 7 9 1031.2 1032.8 0.0
29/11:30am 2.3 -2.2 2.2 99 0.0 NNE 15 17 8 9 1031.6 1033.2 0.0
29/11:00am 0.2 -3.1 0.1 99 0.0 NE 7 17 4 9 1032.4 1034.0 0.0
29/10:30am -0.8 -2.9 -0.9 99 0.0 CALM 0 0 0 0 1032.9 1034.5 0.0
29/10:00am -1.9 -4.2 -2.0 99 -0.1 CALM 0 0 0 0 1033.2 1034.8 0.0
29/09:30am -3.0 -5.4 -3.1 99 -0.1 CALM 0 0 0 0 1033.3 1034.9 0.0
29/09:00am -3.3 -5.7 -3.4 99 -0.1 CALM 0 0 0 0 1033.2 1034.8 0.2
29/08:30am -3.6 -6.1 -3.7 99 -0.1 CALM 0 0 0 0 1033.1 1034.7 0.2
29/08:00am -4.3 -6.8 -4.4 99 -0.1 CALM 0 0 0 0 1033.0 1034.6 0.2
29/07:30am -4.7 -7.3 -4.8 99 -0.2 CALM 0 0 0 0 1032.7 1034.3 0.2
29/07:00am -4.1 -6.6 -4.2 99 -0.1 CALM 0 0 0 0 1032.6 1034.2 0.2
29/06:30am -3.8 -6.3 -3.9 99 -0.1 CALM 0 0 0 0 1032.4 1034.0 0.2
29/06:00am -3.8 -6.3 -3.9 99 -0.1 CALM 0 0 0 0 1032.3 1033.9 0.2
29/05:30am -4.1 -6.6 -4.2 99 -0.1 CALM 0 0 0 0 1032.1 1033.7 0.2
29/05:08am -4.2 -6.7 -4.3 99 -0.1 CALM 0 0 0 0 1032.0 1033.6 0.2
29/05:00am -4.2 -6.7 -4.3 99 -0.1 CALM 0 0 0 0 1032.0 1033.6 0.2
29/04:36am -4.5 -7.1 -4.6 99 -0.2 CALM 0 0 0 0 1031.9 1033.5 0.2
29/04:30am -4.6 -7.2 -4.7 99 -0.2 CALM 0 0 0 0 1031.9 1033.5 0.2
29/04:04am -3.9 -6.4 -4.0 99 -0.1 CALM 0 0 0 0 1031.9 1033.5 0.2
29/04:00am -3.8 -6.3 -3.9 99 -0.1 CALM 0 0 0 0 1031.9 1033.5 0.2
29/03:32am -3.6 -6.1 -3.7 99 -0.1 CALM 0 0 0 0 1032.1 1033.7 0.2
29/03:30am -3.5 -6.0 -3.6 99 -0.1 CALM 0 0 0 0 1032.1 1033.7 0.2
29/03:00am -3.2 -5.6 -3.3 99 -0.1 CALM 0 0 0 0 1032.3 1033.9 0.2
29/02:30am -3.5 -6.0 -3.6 99 -0.1 CALM 0 0 0 0 1032.3 1033.9 0.2
29/02:00am -3.1 -5.5 -3.2 99 -0.1 CALM 0 0 0 0 1032.3 1033.9 0.2
29/01:30am -2.4 -4.7 -2.5 99 -0.1 CALM 0 0 0 0 1032.2 1033.8 0.2
29/01:05am -4.1 -6.6 -4.2 99 -0.1 CALM 0 0 0 0 1032.3 1033.9 0.2
29/01:00am -3.8 -6.3 -3.9 99 -0.1 CALM 0 0 0 0 1032.3 1033.9 0.2
29/12:52am -4.7 -7.3 -4.8 99 -0.2 CALM 0 0 0 0 1032.3 1033.9 0.2
29/12:30am -5.1 -7.7 -5.2 99 -0.2 CALM 0 0 0 0 1032.3 1033.9 0.2
29/12:00am -5.2 -7.8 -5.3 99 -0.2 CALM 0 0 0 0 1032.5 1034.1 0.2
 
Date/Time
EST
Temp
°C
App
Temp
°C
Dew
Point
Rel
Hum
%
Delta-T
°C
Wind Press
QNH
hPa
Press
MSL
hPa
Rain
since 9 am
mm
Dir
 
Spd
km/h
Gust
km/h
Spd
kts
Gust
kts
28/11:30pm -4.5 -7.1 -4.6 99 -0.2 CALM 0 0 0 0 1032.6 1034.2 0.2
28/11:16pm -4.4 -7.0 -4.5 99 -0.2 CALM 0 0 0 0 1032.7 1034.3 0.2
28/11:00pm -4.7 -7.3 -4.8 99 -0.2 CALM 0 0 0 0 1032.7 1034.3 0.2
28/10:43pm -4.5 -7.1 -4.6 99 -0.2 CALM 0 0 0 0 1032.7 1034.3 0.2
28/10:37pm -4.3 -6.8 -4.4 99 -0.1 CALM 0 0 0 0 1032.7 1034.3 0.2
28/10:32pm -4.1 -6.6 -4.2 99 -0.1 CALM 0 0 0 0 1032.7 1034.3 0.2
28/10:30pm -3.9 -6.4 -4.0 99 -0.1 CALM 0 0 0 0 1032.7 1034.3 0.2
28/10:00pm -4.8 -7.5 -5.8 93 0.1 CALM 0 0 0 0 1032.9 1034.5 0.2
28/09:30pm -4.0 -6.6 -4.7 95 0.1 CALM 0 0 0 0 1033.0 1034.6 0.2
28/09:18pm -3.4 -5.8 -3.5 99 -0.1 CALM 0 0 0 0 1033.0 1034.6 0.2
28/09:00pm -3.6 -6.1 -4.0 97 0.0 CALM 0 0 0 0 1033.0 1034.6 0.2
28/08:54pm -3.5 -6.0 -4.2 95 0.1 CALM 0 0 0 0 1032.9 1034.5 0.2
28/08:30pm -1.9 -4.2 -2.0 99 -0.1 CALM 0 0 0 0 1033.0 1034.6 0.2
28/08:25pm -2.0 -4.3 -2.1 99 -0.1 CALM 0 0 0 0 1033.0 1034.6 0.2
28/08:06pm -2.2 -4.5 -2.3 99 -0.1 CALM 0 0 0 0 1032.7 1034.3 0.2
28/08:00pm -1.9 -4.2 -2.0 99 -0.1 CALM 0 0 0 0 1032.7 1034.3 0.2
28/07:30pm -1.8 -4.1 -2.2 97 0.1 CALM 0 0 0 0 1032.6 1034.2 0.2
28/07:00pm -1.6 -3.9 -2.4 94 0.2 CALM 0 0 0 0 1032.4 1034.0 0.2
28/06:30pm -0.6 -2.8 -1.4 94 0.3 CALM 0 0 0 0 1032.2 1033.8 0.2
28/06:00pm 0.4 -2.5 -1.3 88 0.7 N 4 9 2 5 1031.9 1033.5 0.2
28/05:30pm 2.7 -0.7 2.1 96 0.3 N 9 9 5 5 1031.6 1033.2 0.2
28/05:00pm 3.0 -0.8 2.0 93 0.4 NNE 11 13 6 7 1031.4 1033.0 0.2
28/04:30pm 4.8 1.0 1.8 81 1.3 NNE 11 11 6 6 1031.1 1032.7 0.2
28/04:00pm 7.0 3.4 3.1 76 1.7 NE 11 13 6 7 1030.9 1032.4 0.2
28/03:30pm 7.4 3.5 3.3 75 1.8 NNE 13 15 7 8 1030.8 1032.3 0.2
28/03:00pm 7.8 4.3 3.5 74 1.9 NNE 11 15 6 8 1030.7 1032.2 0.2
28/02:30pm 8.3 4.5 3.9 74 2.0 NNE 13 17 7 9 1030.4 1032.0 0.2
28/02:00pm 8.0 4.5 3.5 73 2.0 NNE 11 15 6 8 1030.7 1032.2 0.2
28/01:30pm 7.4 3.5 3.6 77 1.7 NE 13 17 7 9 1031.0 1032.6 0.2
28/01:00pm 7.4 5.5 2.9 73 2.0 SW 2 7 1 4 1031.3 1032.9 0.2
28/12:30pm 7.4 4.9 3.5 76 1.8 NE 6 9 3 5 1031.8 1033.3 0.2
28/12:00pm 6.1 3.0 3.4 83 1.2 NNE 9 13 5 7 1032.1 1033.7 0.2
28/11:31am 5.1 1.6 3.3 88 0.8 NE 11 13 6 7 1032.6 1034.2 0.2
28/11:30am 5.3 1.9 3.8 90 0.7 NE 11 13 6 7 1032.6 1034.2 0.2
28/11:00am 3.6 0.8 3.3 98 0.1 NE 7 9 4 5 1033.1 1034.7 0.2
28/10:30am 2.5 -0.4 2.4 99 0.0 NE 7 11 4 6 1033.4 1035.0 0.2
28/10:00am 1.3 -0.9 1.2 99 0.0 NE 2 7 1 4 1033.7 1035.4 0.2
28/09:30am -0.4 -2.5 -0.5 99 0.0 CALM 0 0 0 0 1033.6 1035.2 0.2
28/09:10am -1.0 -3.1 -1.1 99 0.0 CALM 0 0 0 0 1033.5 1035.1 0.2
28/09:00am -1.2 -3.7 -1.3 99 0.0 W 2 7 1 4 1033.4 1035.0 0.0
28/08:30am -1.6 -6.7 -1.7 99 0.0 SSW 15 19 8 10 1033.2 1034.8 0.0
28/08:00am -1.6 -5.9 -1.7 99 0.0 SW 11 15 6 8 1033.1 1034.7 0.0
28/07:30am -2.1 -6.5 -2.2 99 -0.1 SSW 11 13 6 7 1032.7 1034.3 0.0
28/07:00am -2.0 -6.0 -2.1 99 -0.1 WSW 9 11 5 6 1032.2 1033.8 0.0
28/06:30am -2.3 -7.1 -2.4 99 -0.1 SW 13 15 7 8 1031.9 1033.5 0.0
28/06:00am -1.6 -6.7 -1.7 99 0.0 SSW 15 20 8 11 1031.5 1033.1 0.0

Other Formats:

Comma delimited format used in spreadsheet applications
http://www.bom.gov.au/fwo/IDN60801/IDN60801.94921.axf

JavaScript Object Notation format (JSON) in row-major order
http://www.bom.gov.au/fwo/IDN60801/IDN60801.94921.json